sensor_id;sensor_type;location;lat;lon;timestamp;P1;durP1;ratioP1;P2;durP2;ratioP2
71503;SDS011;59323;50.874;7.028;2023-07-24T00:02:03;4.70;;;2.08;;
71503;SDS011;59323;50.874;7.028;2023-07-24T00:04:32;3.50;;;1.70;;
71503;SDS011;59323;50.874;7.028;2023-07-24T00:06:58;5.75;;;2.30;;
71503;SDS011;59323;50.874;7.028;2023-07-24T00:09:24;5.67;;;2.50;;
71503;SDS011;59323;50.874;7.028;2023-07-24T00:11:50;5.38;;;2.67;;
71503;SDS011;59323;50.874;7.028;2023-07-24T00:14:15;5.47;;;2.07;;
71503;SDS011;59323;50.874;7.028;2023-07-24T00:16:41;5.57;;;2.23;;
71503;SDS011;59323;50.874;7.028;2023-07-24T00:19:06;5.10;;;2.00;;
71503;SDS011;59323;50.874;7.028;2023-07-24T00:21:32;6.33;;;2.47;;
71503;SDS011;59323;50.874;7.028;2023-07-24T00:23:57;5.07;;;2.50;;
71503;SDS011;59323;50.874;7.028;2023-07-24T00:26:22;5.87;;;2.03;;
71503;SDS011;59323;50.874;7.028;2023-07-24T00:28:48;5.33;;;2.40;;
71503;SDS011;59323;50.874;7.028;2023-07-24T00:31:13;5.40;;;2.30;;
71503;SDS011;59323;50.874;7.028;2023-07-24T00:33:38;6.20;;;1.83;;
71503;SDS011;59323;50.874;7.028;2023-07-24T00:36:04;5.97;;;2.30;;
71503;SDS011;59323;50.874;7.028;2023-07-24T00:38:29;6.83;;;2.10;;
71503;SDS011;59323;50.874;7.028;2023-07-24T00:40:54;5.77;;;2.70;;
71503;SDS011;59323;50.874;7.028;2023-07-24T00:43:20;5.00;;;2.43;;
71503;SDS011;59323;50.874;7.028;2023-07-24T00:45:45;6.55;;;2.50;;
71503;SDS011;59323;50.874;7.028;2023-07-24T00:48:12;5.37;;;2.20;;
71503;SDS011;59323;50.874;7.028;2023-07-24T00:50:37;7.25;;;2.53;;
71503;SDS011;59323;50.874;7.028;2023-07-24T00:53:04;6.30;;;2.40;;
71503;SDS011;59323;50.874;7.028;2023-07-24T00:55:29;4.30;;;2.23;;
71503;SDS011;59323;50.874;7.028;2023-07-24T00:57:56;4.95;;;2.33;;
71503;SDS011;59323;50.874;7.028;2023-07-24T01:00:23;4.87;;;2.47;;
71503;SDS011;59323;50.874;7.028;2023-07-24T01:02:48;6.03;;;2.20;;
71503;SDS011;59323;50.874;7.028;2023-07-24T01:05:14;5.03;;;2.47;;
71503;SDS011;59323;50.874;7.028;2023-07-24T01:07:41;5.07;;;2.27;;
71503;SDS011;59323;50.874;7.028;2023-07-24T01:10:07;7.28;;;2.47;;
71503;SDS011;59323;50.874;7.028;2023-07-24T01:15:09;5.65;;;2.38;;
71503;SDS011;59323;50.874;7.028;2023-07-24T01:17:42;8.32;;;2.05;;
71503;SDS011;59323;50.874;7.028;2023-07-24T01:20:12;6.10;;;2.72;;
71503;SDS011;59323;50.874;7.028;2023-07-24T01:22:48;4.77;;;2.17;;
71503;SDS011;59323;50.874;7.028;2023-07-24T01:25:33;5.97;;;2.30;;
71503;SDS011;59323;50.874;7.028;2023-07-24T01:28:06;5.55;;;2.30;;
71503;SDS011;59323;50.874;7.028;2023-07-24T01:30:32;5.85;;;2.78;;
71503;SDS011;59323;50.874;7.028;2023-07-24T01:32:58;8.20;;;2.33;;
71503;SDS011;59323;50.874;7.028;2023-07-24T01:35:23;7.37;;;2.43;;
71503;SDS011;59323;50.874;7.028;2023-07-24T01:37:50;6.15;;;2.13;;
71503;SDS011;59323;50.874;7.028;2023-07-24T01:40:16;5.85;;;2.25;;
71503;SDS011;59323;50.874;7.028;2023-07-24T01:42:42;8.05;;;2.75;;
71503;SDS011;59323;50.874;7.028;2023-07-24T01:45:08;6.73;;;2.53;;
71503;SDS011;59323;50.874;7.028;2023-07-24T01:47:34;10.13;;;3.40;;
71503;SDS011;59323;50.874;7.028;2023-07-24T01:49:59;6.60;;;2.70;;
71503;SDS011;59323;50.874;7.028;2023-07-24T01:52:26;5.43;;;2.03;;
71503;SDS011;59323;50.874;7.028;2023-07-24T01:54:51;7.40;;;3.10;;
71503;SDS011;59323;50.874;7.028;2023-07-24T01:57:16;5.27;;;2.20;;
71503;SDS011;59323;50.874;7.028;2023-07-24T01:59:42;7.40;;;2.50;;
71503;SDS011;59323;50.874;7.028;2023-07-24T02:02:08;5.05;;;2.08;;
71503;SDS011;59323;50.874;7.028;2023-07-24T02:04:34;6.57;;;2.30;;
71503;SDS011;59323;50.874;7.028;2023-07-24T02:06:59;6.80;;;2.60;;
71503;SDS011;59323;50.874;7.028;2023-07-24T02:09:25;5.90;;;2.42;;
71503;SDS011;59323;50.874;7.028;2023-07-24T02:11:50;8.57;;;2.70;;
71503;SDS011;59323;50.874;7.028;2023-07-24T02:14:17;7.73;;;2.70;;
71503;SDS011;59323;50.874;7.028;2023-07-24T02:16:43;9.40;;;3.20;;
71503;SDS011;59323;50.874;7.028;2023-07-24T02:19:08;7.47;;;2.57;;
71503;SDS011;59323;50.874;7.028;2023-07-24T02:21:34;8.77;;;3.50;;
71503;SDS011;59323;50.874;7.028;2023-07-24T02:23:59;7.47;;;2.88;;
71503;SDS011;59323;50.874;7.028;2023-07-24T02:26:25;8.50;;;2.97;;
71503;SDS011;59323;50.874;7.028;2023-07-24T02:28:53;7.70;;;3.33;;
71503;SDS011;59323;50.874;7.028;2023-07-24T02:31:19;8.23;;;2.72;;
71503;SDS011;59323;50.874;7.028;2023-07-24T02:33:44;9.90;;;3.40;;
71503;SDS011;59323;50.874;7.028;2023-07-24T02:36:09;12.90;;;3.60;;
71503;SDS011;59323;50.874;7.028;2023-07-24T02:38:35;7.32;;;3.40;;
71503;SDS011;59323;50.874;7.028;2023-07-24T02:41:00;9.60;;;2.97;;
71503;SDS011;59323;50.874;7.028;2023-07-24T02:43:25;9.53;;;3.13;;
71503;SDS011;59323;50.874;7.028;2023-07-24T02:45:51;7.93;;;2.73;;
71503;SDS011;59323;50.874;7.028;2023-07-24T02:48:16;8.20;;;3.20;;
71503;SDS011;59323;50.874;7.028;2023-07-24T02:50:42;8.25;;;2.90;;
71503;SDS011;59323;50.874;7.028;2023-07-24T02:53:07;7.07;;;2.73;;
71503;SDS011;59323;50.874;7.028;2023-07-24T02:55:32;10.43;;;3.10;;
71503;SDS011;59323;50.874;7.028;2023-07-24T02:57:58;8.23;;;2.90;;
71503;SDS011;59323;50.874;7.028;2023-07-24T03:00:23;6.83;;;3.20;;
71503;SDS011;59323;50.874;7.028;2023-07-24T03:02:49;6.00;;;3.10;;
71503;SDS011;59323;50.874;7.028;2023-07-24T03:05:14;6.03;;;2.90;;
71503;SDS011;59323;50.874;7.028;2023-07-24T03:07:39;5.90;;;3.20;;
71503;SDS011;59323;50.874;7.028;2023-07-24T03:10:05;8.40;;;2.57;;
71503;SDS011;59323;50.874;7.028;2023-07-24T03:12:31;7.35;;;2.90;;
71503;SDS011;59323;50.874;7.028;2023-07-24T03:14:56;6.83;;;2.70;;
71503;SDS011;59323;50.874;7.028;2023-07-24T03:17:22;6.63;;;3.00;;
71503;SDS011;59323;50.874;7.028;2023-07-24T03:19:48;6.55;;;2.60;;
71503;SDS011;59323;50.874;7.028;2023-07-24T03:22:14;7.40;;;2.70;;
71503;SDS011;59323;50.874;7.028;2023-07-24T03:24:39;7.90;;;3.30;;
71503;SDS011;59323;50.874;7.028;2023-07-24T03:27:05;6.05;;;2.95;;
71503;SDS011;59323;50.874;7.028;2023-07-24T03:29:30;6.43;;;3.10;;
71503;SDS011;59323;50.874;7.028;2023-07-24T03:31:56;7.80;;;3.30;;
71503;SDS011;59323;50.874;7.028;2023-07-24T03:34:21;7.40;;;2.67;;
71503;SDS011;59323;50.874;7.028;2023-07-24T03:37:03;7.13;;;2.77;;
71503;SDS011;59323;50.874;7.028;2023-07-24T03:39:29;6.88;;;2.60;;
71503;SDS011;59323;50.874;7.028;2023-07-24T03:41:54;7.77;;;2.77;;
71503;SDS011;59323;50.874;7.028;2023-07-24T03:44:21;6.45;;;2.70;;
71503;SDS011;59323;50.874;7.028;2023-07-24T03:46:46;7.77;;;2.50;;
71503;SDS011;59323;50.874;7.028;2023-07-24T03:49:12;6.80;;;2.67;;
71503;SDS011;59323;50.874;7.028;2023-07-24T03:51:37;7.73;;;2.73;;
71503;SDS011;59323;50.874;7.028;2023-07-24T03:54:03;8.93;;;2.63;;
71503;SDS011;59323;50.874;7.028;2023-07-24T03:56:28;8.73;;;3.07;;
71503;SDS011;59323;50.874;7.028;2023-07-24T03:58:53;6.63;;;2.83;;
71503;SDS011;59323;50.874;7.028;2023-07-24T04:01:19;6.93;;;2.93;;
71503;SDS011;59323;50.874;7.028;2023-07-24T04:03:44;8.27;;;2.80;;
71503;SDS011;59323;50.874;7.028;2023-07-24T04:06:10;6.88;;;2.70;;
71503;SDS011;59323;50.874;7.028;2023-07-24T04:08:35;8.23;;;2.60;;
71503;SDS011;59323;50.874;7.028;2023-07-24T04:11:01;6.47;;;3.07;;
71503;SDS011;59323;50.874;7.028;2023-07-24T04:13:26;9.43;;;3.22;;
71503;SDS011;59323;50.874;7.028;2023-07-24T04:15:51;7.80;;;2.90;;
71503;SDS011;59323;50.874;7.028;2023-07-24T04:18:17;6.40;;;3.03;;
71503;SDS011;59323;50.874;7.028;2023-07-24T04:20:42;9.47;;;3.37;;
71503;SDS011;59323;50.874;7.028;2023-07-24T04:23:07;6.25;;;2.72;;
71503;SDS011;59323;50.874;7.028;2023-07-24T04:25:33;7.33;;;3.03;;
71503;SDS011;59323;50.874;7.028;2023-07-24T04:27:59;10.90;;;3.17;;
71503;SDS011;59323;50.874;7.028;2023-07-24T04:30:24;6.73;;;3.20;;
71503;SDS011;59323;50.874;7.028;2023-07-24T04:32:50;7.43;;;3.10;;
71503;SDS011;59323;50.874;7.028;2023-07-24T04:35:15;8.40;;;3.20;;
71503;SDS011;59323;50.874;7.028;2023-07-24T04:37:40;10.82;;;3.40;;
71503;SDS011;59323;50.874;7.028;2023-07-24T04:40:06;8.77;;;3.20;;
71503;SDS011;59323;50.874;7.028;2023-07-24T04:42:32;10.70;;;4.35;;
71503;SDS011;59323;50.874;7.028;2023-07-24T04:44:57;8.13;;;3.37;;
71503;SDS011;59323;50.874;7.028;2023-07-24T04:47:23;9.83;;;3.17;;
71503;SDS011;59323;50.874;7.028;2023-07-24T04:49:48;11.03;;;3.40;;
71503;SDS011;59323;50.874;7.028;2023-07-24T04:52:13;11.70;;;3.80;;
71503;SDS011;59323;50.874;7.028;2023-07-24T04:54:39;7.70;;;3.30;;
71503;SDS011;59323;50.874;7.028;2023-07-24T04:57:04;9.40;;;3.17;;
71503;SDS011;59323;50.874;7.028;2023-07-24T04:59:29;8.43;;;3.23;;
71503;SDS011;59323;50.874;7.028;2023-07-24T05:01:55;8.50;;;3.23;;
71503;SDS011;59323;50.874;7.028;2023-07-24T05:04:21;7.18;;;2.97;;
71503;SDS011;59323;50.874;7.028;2023-07-24T05:06:46;8.00;;;3.30;;
71503;SDS011;59323;50.874;7.028;2023-07-24T05:09:11;9.03;;;3.27;;
71503;SDS011;59323;50.874;7.028;2023-07-24T05:11:37;8.50;;;3.80;;
71503;SDS011;59323;50.874;7.028;2023-07-24T05:14:02;8.27;;;3.50;;
71503;SDS011;59323;50.874;7.028;2023-07-24T05:16:27;7.72;;;3.15;;
71503;SDS011;59323;50.874;7.028;2023-07-24T05:18:53;8.50;;;3.27;;
71503;SDS011;59323;50.874;7.028;2023-07-24T05:21:18;8.03;;;3.20;;
71503;SDS011;59323;50.874;7.028;2023-07-24T05:23:44;8.45;;;3.03;;
71503;SDS011;59323;50.874;7.028;2023-07-24T05:26:09;7.47;;;3.40;;
71503;SDS011;59323;50.874;7.028;2023-07-24T05:28:35;8.27;;;3.07;;
71503;SDS011;59323;50.874;7.028;2023-07-24T05:31:01;7.40;;;3.10;;
71503;SDS011;59323;50.874;7.028;2023-07-24T05:33:27;7.18;;;3.33;;
71503;SDS011;59323;50.874;7.028;2023-07-24T05:35:57;7.43;;;3.07;;
71503;SDS011;59323;50.874;7.028;2023-07-24T05:38:23;9.55;;;3.25;;
71503;SDS011;59323;50.874;7.028;2023-07-24T05:40:54;9.57;;;3.20;;
71503;SDS011;59323;50.874;7.028;2023-07-24T05:43:22;8.38;;;3.40;;
71503;SDS011;59323;50.874;7.028;2023-07-24T05:45:47;11.85;;;2.80;;
71503;SDS011;59323;50.874;7.028;2023-07-24T05:48:13;8.80;;;3.20;;
71503;SDS011;59323;50.874;7.028;2023-07-24T05:50:38;7.90;;;3.43;;
71503;SDS011;59323;50.874;7.028;2023-07-24T05:53:06;7.55;;;3.25;;
71503;SDS011;59323;50.874;7.028;2023-07-24T05:55:36;7.80;;;3.13;;
71503;SDS011;59323;50.874;7.028;2023-07-24T05:58:09;11.23;;;4.13;;
71503;SDS011;59323;50.874;7.028;2023-07-24T06:00:35;10.95;;;4.00;;
71503;SDS011;59323;50.874;7.028;2023-07-24T06:03:04;10.32;;;3.75;;
71503;SDS011;59323;50.874;7.028;2023-07-24T06:05:30;8.57;;;3.13;;
71503;SDS011;59323;50.874;7.028;2023-07-24T06:07:56;7.57;;;3.33;;
71503;SDS011;59323;50.874;7.028;2023-07-24T06:10:21;8.15;;;3.40;;
71503;SDS011;59323;50.874;7.028;2023-07-24T06:12:46;10.17;;;3.47;;
71503;SDS011;59323;50.874;7.028;2023-07-24T06:15:12;6.90;;;3.37;;
71503;SDS011;59323;50.874;7.028;2023-07-24T06:17:38;7.97;;;3.00;;
71503;SDS011;59323;50.874;7.028;2023-07-24T06:20:03;6.73;;;2.93;;
71503;SDS011;59323;50.874;7.028;2023-07-24T06:22:29;7.97;;;3.13;;
71503;SDS011;59323;50.874;7.028;2023-07-24T06:24:54;8.27;;;3.33;;
71503;SDS011;59323;50.874;7.028;2023-07-24T06:27:20;7.33;;;3.17;;
71503;SDS011;59323;50.874;7.028;2023-07-24T06:29:45;9.17;;;3.20;;
71503;SDS011;59323;50.874;7.028;2023-07-24T06:32:10;7.27;;;3.47;;
71503;SDS011;59323;50.874;7.028;2023-07-24T06:34:36;10.10;;;3.38;;
71503;SDS011;59323;50.874;7.028;2023-07-24T06:37:01;7.40;;;2.97;;
71503;SDS011;59323;50.874;7.028;2023-07-24T06:39:27;9.20;;;3.10;;
71503;SDS011;59323;50.874;7.028;2023-07-24T06:41:53;10.02;;;3.22;;
71503;SDS011;59323;50.874;7.028;2023-07-24T06:44:20;10.15;;;3.55;;
71503;SDS011;59323;50.874;7.028;2023-07-24T06:46:45;6.73;;;2.87;;
71503;SDS011;59323;50.874;7.028;2023-07-24T06:49:11;8.47;;;3.20;;
71503;SDS011;59323;50.874;7.028;2023-07-24T06:51:36;6.77;;;3.00;;
71503;SDS011;59323;50.874;7.028;2023-07-24T06:54:03;7.85;;;3.03;;
71503;SDS011;59323;50.874;7.028;2023-07-24T06:56:29;7.97;;;2.73;;
71503;SDS011;59323;50.874;7.028;2023-07-24T06:58:54;6.83;;;2.90;;
71503;SDS011;59323;50.874;7.028;2023-07-24T07:01:19;6.90;;;2.80;;
71503;SDS011;59323;50.874;7.028;2023-07-24T07:03:45;7.07;;;3.00;;
71503;SDS011;59323;50.874;7.028;2023-07-24T07:06:10;6.17;;;2.60;;
71503;SDS011;59323;50.874;7.028;2023-07-24T07:08:37;7.57;;;2.80;;
71503;SDS011;59323;50.874;7.028;2023-07-24T07:11:02;8.30;;;3.13;;
71503;SDS011;59323;50.874;7.028;2023-07-24T07:13:28;7.37;;;2.43;;
71503;SDS011;59323;50.874;7.028;2023-07-24T07:15:57;9.38;;;3.67;;
71503;SDS011;59323;50.874;7.028;2023-07-24T07:18:46;9.20;;;2.90;;
71503;SDS011;59323;50.874;7.028;2023-07-24T07:28:17;7.68;;;2.78;;
71503;SDS011;59323;50.874;7.028;2023-07-24T07:30:49;7.55;;;3.25;;
71503;SDS011;59323;50.874;7.028;2023-07-24T07:33:19;6.57;;;2.50;;
71503;SDS011;59323;50.874;7.028;2023-07-24T07:52:55;7.75;;;3.50;;
71503;SDS011;59323;50.874;7.028;2023-07-24T07:56:21;6.20;;;3.17;;
71503;SDS011;59323;50.874;7.028;2023-07-24T08:02:22;8.40;;;2.92;;
71503;SDS011;59323;50.874;7.028;2023-07-24T08:05:56;7.15;;;2.55;;
71503;SDS011;59323;50.874;7.028;2023-07-24T08:12:28;7.30;;;2.60;;
71503;SDS011;59323;50.874;7.028;2023-07-24T08:15:03;7.00;;;2.50;;
71503;SDS011;59323;50.874;7.028;2023-07-24T08:31:56;6.60;;;2.55;;
71503;SDS011;59323;50.874;7.028;2023-07-24T08:34:23;7.90;;;2.90;;
71503;SDS011;59323;50.874;7.028;2023-07-24T08:36:48;7.05;;;2.80;;
71503;SDS011;59323;50.874;7.028;2023-07-24T08:39:15;6.13;;;2.72;;
71503;SDS011;59323;50.874;7.028;2023-07-24T08:41:40;8.97;;;3.93;;
71503;SDS011;59323;50.874;7.028;2023-07-24T08:44:09;8.33;;;3.10;;
71503;SDS011;59323;50.874;7.028;2023-07-24T08:46:36;6.75;;;2.80;;
71503;SDS011;59323;50.874;7.028;2023-07-24T08:49:03;6.63;;;2.67;;
71503;SDS011;59323;50.874;7.028;2023-07-24T08:51:30;7.10;;;2.77;;
71503;SDS011;59323;50.874;7.028;2023-07-24T08:53:57;5.88;;;2.97;;
71503;SDS011;59323;50.874;7.028;2023-07-24T08:56:25;6.82;;;2.80;;
71503;SDS011;59323;50.874;7.028;2023-07-24T08:58:55;7.00;;;2.95;;
71503;SDS011;59323;50.874;7.028;2023-07-24T09:01:20;7.67;;;2.70;;
71503;SDS011;59323;50.874;7.028;2023-07-24T09:03:46;6.10;;;2.73;;
71503;SDS011;59323;50.874;7.028;2023-07-24T09:06:12;5.78;;;2.72;;
71503;SDS011;59323;50.874;7.028;2023-07-24T09:08:41;5.18;;;2.72;;
71503;SDS011;59323;50.874;7.028;2023-07-24T09:11:09;6.30;;;2.30;;
71503;SDS011;59323;50.874;7.028;2023-07-24T09:13:37;5.95;;;2.58;;
71503;SDS011;59323;50.874;7.028;2023-07-24T09:16:03;6.43;;;2.50;;
71503;SDS011;59323;50.874;7.028;2023-07-24T09:18:44;5.88;;;2.20;;
71503;SDS011;59323;50.874;7.028;2023-07-24T09:21:12;6.97;;;2.87;;
71503;SDS011;59323;50.874;7.028;2023-07-24T09:23:40;5.60;;;2.15;;
71503;SDS011;59323;50.874;7.028;2023-07-24T09:26:09;5.80;;;2.20;;
71503;SDS011;59323;50.874;7.028;2023-07-24T09:28:35;6.10;;;2.65;;
71503;SDS011;59323;50.874;7.028;2023-07-24T09:31:01;5.87;;;2.40;;
71503;SDS011;59323;50.874;7.028;2023-07-24T09:33:33;5.45;;;2.45;;
71503;SDS011;59323;50.874;7.028;2023-07-24T09:36:03;5.28;;;2.00;;
71503;SDS011;59323;50.874;7.028;2023-07-24T09:38:30;5.63;;;2.30;;
71503;SDS011;59323;50.874;7.028;2023-07-24T09:40:58;8.00;;;2.67;;
71503;SDS011;59323;50.874;7.028;2023-07-24T09:43:27;6.28;;;2.22;;
71503;SDS011;59323;50.874;7.028;2023-07-24T09:45:53;6.20;;;2.40;;
71503;SDS011;59323;50.874;7.028;2023-07-24T09:48:20;5.37;;;1.90;;
71503;SDS011;59323;50.874;7.028;2023-07-24T09:50:48;6.20;;;2.50;;
71503;SDS011;59323;50.874;7.028;2023-07-24T09:53:20;4.47;;;2.42;;
71503;SDS011;59323;50.874;7.028;2023-07-24T09:55:51;4.80;;;1.90;;
71503;SDS011;59323;50.874;7.028;2023-07-24T09:58:20;5.53;;;2.45;;
71503;SDS011;59323;50.874;7.028;2023-07-24T10:00:46;7.10;;;2.50;;
71503;SDS011;59323;50.874;7.028;2023-07-24T10:03:14;6.15;;;2.22;;
71503;SDS011;59323;50.874;7.028;2023-07-24T10:05:41;5.75;;;2.65;;
71503;SDS011;59323;50.874;7.028;2023-07-24T10:08:09;5.25;;;2.33;;
71503;SDS011;59323;50.874;7.028;2023-07-24T10:10:36;6.13;;;2.58;;
71503;SDS011;59323;50.874;7.028;2023-07-24T10:13:03;5.60;;;2.10;;
71503;SDS011;59323;50.874;7.028;2023-07-24T10:15:29;7.55;;;2.85;;
71503;SDS011;59323;50.874;7.028;2023-07-24T10:18:02;4.65;;;2.40;;
71503;SDS011;59323;50.874;7.028;2023-07-24T10:20:32;7.15;;;3.08;;
71503;SDS011;59323;50.874;7.028;2023-07-24T10:23:02;5.80;;;2.63;;
71503;SDS011;59323;50.874;7.028;2023-07-24T10:25:29;7.87;;;2.33;;
71503;SDS011;59323;50.874;7.028;2023-07-24T10:30:31;6.25;;;2.38;;
71503;SDS011;59323;50.874;7.028;2023-07-24T10:33:13;6.50;;;2.67;;
71503;SDS011;59323;50.874;7.028;2023-07-24T10:35:43;6.32;;;2.88;;
71503;SDS011;59323;50.874;7.028;2023-07-24T10:38:11;5.07;;;2.10;;
71503;SDS011;59323;50.874;7.028;2023-07-24T10:40:39;5.63;;;2.90;;
71503;SDS011;59323;50.874;7.028;2023-07-24T10:43:06;8.68;;;2.67;;
71503;SDS011;59323;50.874;7.028;2023-07-24T10:45:40;4.67;;;2.37;;
71503;SDS011;59323;50.874;7.028;2023-07-24T10:48:06;4.88;;;2.38;;
71503;SDS011;59323;50.874;7.028;2023-07-24T10:50:42;8.00;;;3.00;;
71503;SDS011;59323;50.874;7.028;2023-07-24T10:53:09;5.55;;;2.42;;
71503;SDS011;59323;50.874;7.028;2023-07-24T10:55:36;4.57;;;2.20;;
71503;SDS011;59323;50.874;7.028;2023-07-24T10:58:05;6.10;;;2.72;;
71503;SDS011;59323;50.874;7.028;2023-07-24T11:00:36;5.88;;;3.00;;
71503;SDS011;59323;50.874;7.028;2023-07-24T11:03:02;5.40;;;2.57;;
71503;SDS011;59323;50.874;7.028;2023-07-24T11:05:27;5.43;;;2.38;;
71503;SDS011;59323;50.874;7.028;2023-07-24T11:07:54;5.10;;;2.30;;
71503;SDS011;59323;50.874;7.028;2023-07-24T11:10:32;7.40;;;2.58;;
71503;SDS011;59323;50.874;7.028;2023-07-24T11:13:19;4.50;;;2.10;;
71503;SDS011;59323;50.874;7.028;2023-07-24T11:15:47;6.03;;;2.40;;
71503;SDS011;59323;50.874;7.028;2023-07-24T11:18:13;5.93;;;2.30;;
71503;SDS011;59323;50.874;7.028;2023-07-24T11:20:55;6.05;;;2.80;;
71503;SDS011;59323;50.874;7.028;2023-07-24T11:23:23;4.97;;;2.25;;
71503;SDS011;59323;50.874;7.028;2023-07-24T11:25:53;6.70;;;3.33;;
71503;SDS011;59323;50.874;7.028;2023-07-24T11:28:40;5.57;;;2.88;;
71503;SDS011;59323;50.874;7.028;2023-07-24T11:31:08;6.55;;;2.78;;
71503;SDS011;59323;50.874;7.028;2023-07-24T11:33:42;5.37;;;2.57;;
71503;SDS011;59323;50.874;7.028;2023-07-24T11:36:08;4.25;;;2.03;;
71503;SDS011;59323;50.874;7.028;2023-07-24T11:38:35;4.82;;;2.10;;
71503;SDS011;59323;50.874;7.028;2023-07-24T11:41:10;7.60;;;2.20;;
71503;SDS011;59323;50.874;7.028;2023-07-24T11:43:44;5.32;;;2.13;;
71503;SDS011;59323;50.874;7.028;2023-07-24T11:46:11;6.28;;;2.35;;
71503;SDS011;59323;50.874;7.028;2023-07-24T11:48:40;5.10;;;2.50;;
71503;SDS011;59323;50.874;7.028;2023-07-24T11:51:06;5.63;;;2.40;;
71503;SDS011;59323;50.874;7.028;2023-07-24T11:53:40;5.03;;;2.22;;
71503;SDS011;59323;50.874;7.028;2023-07-24T11:56:13;5.60;;;2.63;;
71503;SDS011;59323;50.874;7.028;2023-07-24T11:58:42;5.50;;;2.30;;
71503;SDS011;59323;50.874;7.028;2023-07-24T12:01:08;3.77;;;1.43;;
71503;SDS011;59323;50.874;7.028;2023-07-24T12:03:33;3.97;;;1.33;;
71503;SDS011;59323;50.874;7.028;2023-07-24T12:05:59;4.20;;;1.10;;
71503;SDS011;59323;50.874;7.028;2023-07-24T12:08:34;5.67;;;1.40;;
71503;SDS011;59323;50.874;7.028;2023-07-24T12:11:00;5.50;;;1.30;;
71503;SDS011;59323;50.874;7.028;2023-07-24T12:13:26;3.75;;;1.63;;
71503;SDS011;59323;50.874;7.028;2023-07-24T12:15:53;3.43;;;1.20;;
71503;SDS011;59323;50.874;7.028;2023-07-24T12:18:18;4.60;;;1.35;;
71503;SDS011;59323;50.874;7.028;2023-07-24T12:20:44;3.07;;;1.37;;
71503;SDS011;59323;50.874;7.028;2023-07-24T12:23:18;5.10;;;1.27;;
71503;SDS011;59323;50.874;7.028;2023-07-24T12:25:44;2.90;;;1.20;;
71503;SDS011;59323;50.874;7.028;2023-07-24T12:28:09;4.43;;;1.40;;
71503;SDS011;59323;50.874;7.028;2023-07-24T12:30:34;5.43;;;2.20;;
71503;SDS011;59323;50.874;7.028;2023-07-24T12:33:00;4.67;;;1.30;;
71503;SDS011;59323;50.874;7.028;2023-07-24T12:35:35;4.90;;;1.45;;
71503;SDS011;59323;50.874;7.028;2023-07-24T12:38:00;6.63;;;1.67;;
71503;SDS011;59323;50.874;7.028;2023-07-24T12:40:25;6.28;;;1.67;;
71503;SDS011;59323;50.874;7.028;2023-07-24T12:42:51;5.13;;;1.73;;
71503;SDS011;59323;50.874;7.028;2023-07-24T12:45:21;4.97;;;1.70;;
71503;SDS011;59323;50.874;7.028;2023-07-24T12:47:49;6.68;;;1.98;;
71503;SDS011;59323;50.874;7.028;2023-07-24T12:50:14;4.67;;;1.70;;
71503;SDS011;59323;50.874;7.028;2023-07-24T12:52:40;3.73;;;1.27;;
71503;SDS011;59323;50.874;7.028;2023-07-24T12:55:05;3.87;;;1.77;;
71503;SDS011;59323;50.874;7.028;2023-07-24T12:57:31;4.65;;;1.70;;
71503;SDS011;59323;50.874;7.028;2023-07-24T12:59:57;5.07;;;1.93;;
71503;SDS011;59323;50.874;7.028;2023-07-24T13:02:22;6.35;;;2.10;;
71503;SDS011;59323;50.874;7.028;2023-07-24T13:04:53;6.47;;;1.93;;
71503;SDS011;59323;50.874;7.028;2023-07-24T13:07:18;6.80;;;2.65;;
71503;SDS011;59323;50.874;7.028;2023-07-24T13:09:44;6.70;;;2.03;;
71503;SDS011;59323;50.874;7.028;2023-07-24T13:12:12;7.83;;;2.40;;
71503;SDS011;59323;50.874;7.028;2023-07-24T13:14:40;4.05;;;1.70;;
71503;SDS011;59323;50.874;7.028;2023-07-24T13:17:06;7.30;;;2.08;;
71503;SDS011;59323;50.874;7.028;2023-07-24T13:19:32;7.00;;;2.07;;
71503;SDS011;59323;50.874;7.028;2023-07-24T13:21:57;5.03;;;2.00;;
71503;SDS011;59323;50.874;7.028;2023-07-24T13:24:23;5.90;;;1.77;;
71503;SDS011;59323;50.874;7.028;2023-07-24T13:26:48;5.47;;;1.80;;
71503;SDS011;59323;50.874;7.028;2023-07-24T13:29:14;5.40;;;1.77;;
71503;SDS011;59323;50.874;7.028;2023-07-24T13:31:40;5.63;;;1.73;;
71503;SDS011;59323;50.874;7.028;2023-07-24T13:36:51;4.93;;;1.77;;
71503;SDS011;59323;50.874;7.028;2023-07-24T13:39:19;4.93;;;2.10;;
71503;SDS011;59323;50.874;7.028;2023-07-24T13:41:53;5.05;;;2.20;;
71503;SDS011;59323;50.874;7.028;2023-07-24T13:44:21;7.30;;;2.10;;
71503;SDS011;59323;50.874;7.028;2023-07-24T13:47:02;5.18;;;1.70;;
71503;SDS011;59323;50.874;7.028;2023-07-24T13:49:28;5.32;;;2.25;;
71503;SDS011;59323;50.874;7.028;2023-07-24T13:52:04;5.70;;;2.07;;
71503;SDS011;59323;50.874;7.028;2023-07-24T13:54:32;5.32;;;2.30;;
71503;SDS011;59323;50.874;7.028;2023-07-24T13:57:05;4.45;;;1.77;;
71503;SDS011;59323;50.874;7.028;2023-07-24T14:07:19;4.68;;;1.60;;
71503;SDS011;59323;50.874;7.028;2023-07-24T14:09:48;6.38;;;2.17;;
71503;SDS011;59323;50.874;7.028;2023-07-24T14:12:13;6.97;;;2.47;;
71503;SDS011;59323;50.874;7.028;2023-07-24T14:14:39;8.00;;;2.57;;
71503;SDS011;59323;50.874;7.028;2023-07-24T14:17:07;9.10;;;2.60;;
71503;SDS011;59323;50.874;7.028;2023-07-24T14:19:32;5.18;;;1.80;;
71503;SDS011;59323;50.874;7.028;2023-07-24T14:21:57;5.73;;;2.00;;
71503;SDS011;59323;50.874;7.028;2023-07-24T14:24:23;4.90;;;2.05;;
71503;SDS011;59323;50.874;7.028;2023-07-24T14:26:48;3.57;;;1.43;;
71503;SDS011;59323;50.874;7.028;2023-07-24T14:29:14;5.63;;;1.73;;
71503;SDS011;59323;50.874;7.028;2023-07-24T14:31:42;3.67;;;1.60;;
71503;SDS011;59323;50.874;7.028;2023-07-24T14:34:08;5.38;;;2.00;;
71503;SDS011;59323;50.874;7.028;2023-07-24T14:36:36;4.15;;;1.80;;
71503;SDS011;59323;50.874;7.028;2023-07-24T14:39:02;5.97;;;1.30;;
71503;SDS011;59323;50.874;7.028;2023-07-24T14:41:28;3.75;;;1.50;;
71503;SDS011;59323;50.874;7.028;2023-07-24T14:43:53;4.60;;;1.77;;
71503;SDS011;59323;50.874;7.028;2023-07-24T14:46:18;4.33;;;1.90;;
71503;SDS011;59323;50.874;7.028;2023-07-24T14:48:44;5.13;;;1.73;;
71503;SDS011;59323;50.874;7.028;2023-07-24T14:51:09;4.90;;;1.60;;
71503;SDS011;59323;50.874;7.028;2023-07-24T14:53:34;3.57;;;1.63;;
71503;SDS011;59323;50.874;7.028;2023-07-24T14:56:02;2.97;;;1.55;;
71503;SDS011;59323;50.874;7.028;2023-07-24T14:58:27;4.63;;;1.80;;
71503;SDS011;59323;50.874;7.028;2023-07-24T15:00:53;3.33;;;1.20;;
71503;SDS011;59323;50.874;7.028;2023-07-24T15:03:18;3.30;;;1.73;;
71503;SDS011;59323;50.874;7.028;2023-07-24T15:05:43;4.20;;;1.50;;
71503;SDS011;59323;50.874;7.028;2023-07-24T15:08:09;5.10;;;1.77;;
71503;SDS011;59323;50.874;7.028;2023-07-24T15:10:34;3.77;;;1.40;;
71503;SDS011;59323;50.874;7.028;2023-07-24T15:12:59;3.43;;;1.60;;
71503;SDS011;59323;50.874;7.028;2023-07-24T15:15:26;3.97;;;1.48;;
71503;SDS011;59323;50.874;7.028;2023-07-24T15:17:51;4.33;;;1.40;;
71503;SDS011;59323;50.874;7.028;2023-07-24T15:20:16;4.35;;;1.35;;
71503;SDS011;59323;50.874;7.028;2023-07-24T15:22:42;4.07;;;1.43;;
71503;SDS011;59323;50.874;7.028;2023-07-24T15:25:07;3.67;;;1.40;;
71503;SDS011;59323;50.874;7.028;2023-07-24T15:27:34;4.00;;;1.60;;
71503;SDS011;59323;50.874;7.028;2023-07-24T15:29:59;2.90;;;1.50;;
71503;SDS011;59323;50.874;7.028;2023-07-24T15:32:25;2.70;;;1.50;;
71503;SDS011;59323;50.874;7.028;2023-07-24T15:34:50;3.80;;;1.60;;
71503;SDS011;59323;50.874;7.028;2023-07-24T15:37:16;4.87;;;1.70;;
71503;SDS011;59323;50.874;7.028;2023-07-24T15:39:41;3.87;;;1.60;;
71503;SDS011;59323;50.874;7.028;2023-07-24T15:42:06;5.30;;;1.33;;
71503;SDS011;59323;50.874;7.028;2023-07-24T15:44:32;3.23;;;1.67;;
71503;SDS011;59323;50.874;7.028;2023-07-24T15:46:57;4.10;;;1.50;;
71503;SDS011;59323;50.874;7.028;2023-07-24T15:49:22;3.33;;;1.60;;
71503;SDS011;59323;50.874;7.028;2023-07-24T15:51:48;3.97;;;1.87;;